createdAt,value
2018-12-24T00:00:41.739Z,0
2018-12-24T00:01:41.730Z,0
2018-12-24T00:02:41.713Z,0
2018-12-24T00:03:41.703Z,0
2018-12-24T00:04:41.684Z,0
2018-12-24T00:05:41.684Z,0
2018-12-24T00:06:41.667Z,0
2018-12-24T00:07:41.648Z,0
2018-12-24T00:08:41.637Z,0
2018-12-24T00:09:41.630Z,0
2018-12-24T00:10:41.607Z,0
2018-12-24T00:11:41.600Z,0
2018-12-24T00:12:41.596Z,0
2018-12-24T00:13:41.580Z,0
2018-12-24T00:14:41.563Z,0
2018-12-24T00:15:41.553Z,0
2018-12-24T00:16:41.535Z,0
2018-12-24T00:17:41.527Z,0
2018-12-24T00:18:41.519Z,0
2018-12-24T00:19:42.474Z,0
2018-12-24T00:20:41.487Z,0
2018-12-24T00:21:41.487Z,0
2018-12-24T00:22:41.466Z,0
2018-12-24T00:23:41.447Z,0
2018-12-24T00:24:41.432Z,0
2018-12-24T00:25:41.418Z,0
2018-12-24T00:26:41.418Z,0
2018-12-24T00:27:41.490Z,0
2018-12-24T00:28:41.387Z,0
2018-12-24T00:29:41.368Z,0
2018-12-24T00:30:41.352Z,0
2018-12-24T00:31:41.347Z,0
2018-12-24T00:32:41.334Z,0
2018-12-24T00:33:41.314Z,0
2018-12-24T00:34:41.316Z,0
2018-12-24T00:35:41.310Z,0
2018-12-24T00:36:41.290Z,0
2018-12-24T00:37:41.326Z,0
2018-12-24T00:38:41.259Z,0
2018-12-24T00:39:41.239Z,0
2018-12-24T00:40:41.226Z,0
2018-12-24T00:41:41.212Z,0
2018-12-24T00:42:41.200Z,0
2018-12-24T00:43:41.188Z,0
2018-12-24T00:44:41.180Z,0
2018-12-24T00:45:41.172Z,0
2018-12-24T00:46:41.148Z,0
2018-12-24T00:47:41.143Z,0
2018-12-24T00:48:40.895Z,0
2018-12-24T00:49:41.111Z,0
2018-12-24T00:50:41.112Z,0
2018-12-24T00:51:41.093Z,0
2018-12-24T00:52:41.071Z,0
2018-12-24T00:53:41.060Z,0
2018-12-24T00:54:41.050Z,0
2018-12-24T00:55:41.036Z,0
2018-12-24T00:56:41.032Z,0
2018-12-24T00:57:41.007Z,0
2018-12-24T00:58:40.999Z,0
2018-12-24T00:59:40.985Z,0
2018-12-24T01:00:40.975Z,0
2018-12-24T01:01:40.961Z,0
2018-12-24T01:02:41.194Z,0
2018-12-24T01:03:40.930Z,0
2018-12-24T01:04:40.917Z,0
2018-12-24T01:05:40.904Z,0
2018-12-24T01:06:40.896Z,0
2018-12-24T01:07:40.895Z,0
2018-12-24T01:08:40.630Z,0
2018-12-24T01:09:40.854Z,0
2018-12-24T01:10:40.844Z,0
2018-12-24T01:11:40.828Z,0
2018-12-24T01:12:40.814Z,0
2018-12-24T01:13:40.811Z,0
2018-12-24T01:14:40.785Z,0
2018-12-24T01:15:40.775Z,0
2018-12-24T01:16:40.763Z,0
2018-12-24T01:17:40.747Z,0
2018-12-24T01:18:40.730Z,0
2018-12-24T01:19:40.722Z,0
2018-12-24T01:20:41.070Z,0
2018-12-24T01:21:40.693Z,0
2018-12-24T01:22:40.682Z,0
2018-12-24T01:23:40.674Z,0
2018-12-24T01:24:40.652Z,0
2018-12-24T01:25:40.638Z,0
2018-12-24T01:26:40.623Z,0
2018-12-24T01:27:40.612Z,0
2018-12-24T01:28:40.601Z,0
2018-12-24T01:29:40.586Z,0
2018-12-24T01:30:40.637Z,0
2018-12-24T01:31:40.556Z,0
2018-12-24T01:32:40.302Z,0
2018-12-24T01:33:40.547Z,0
2018-12-24T01:34:40.521Z,0
2018-12-24T01:35:40.501Z,0
2018-12-24T01:36:40.610Z,0
2018-12-24T01:37:40.480Z,0
2018-12-24T01:38:40.466Z,0
2018-12-24T01:39:40.451Z,0
2018-12-24T01:40:40.437Z,0
2018-12-24T01:41:40.421Z,0
2018-12-24T01:42:43.012Z,0
2018-12-24T01:43:40.389Z,0
2018-12-24T01:44:40.387Z,0
2018-12-24T01:45:40.129Z,0
2018-12-24T01:46:40.354Z,0
2018-12-24T01:47:40.339Z,0
2018-12-24T01:48:40.319Z,0
2018-12-24T01:49:40.324Z,0
2018-12-24T01:50:40.298Z,0
2018-12-24T01:51:40.280Z,0
2018-12-24T01:52:40.262Z,0
2018-12-24T01:53:40.259Z,0
2018-12-24T01:54:40.242Z,0
2018-12-24T01:55:40.219Z,0
2018-12-24T01:56:40.203Z,0
2018-12-24T01:57:40.189Z,0
2018-12-24T01:58:40.204Z,0
2018-12-24T01:59:40.174Z,0
2018-12-24T02:00:39.918Z,0
2018-12-24T02:01:40.133Z,0
2018-12-24T02:02:40.124Z,0
2018-12-24T02:03:40.120Z,0
2018-12-24T02:04:40.110Z,0
2018-12-24T02:05:40.082Z,0
2018-12-24T02:06:40.073Z,0
2018-12-24T02:07:40.050Z,0
2018-12-24T02:08:40.040Z,0
2018-12-24T02:09:40.033Z,0
2018-12-24T02:10:40.121Z,0
2018-12-24T02:11:40.032Z,0
2018-12-24T02:12:47.062Z,0
2018-12-24T02:13:39.967Z,0
2018-12-24T02:14:39.950Z,0
2018-12-24T02:15:39.934Z,0
2018-12-24T02:16:39.931Z,0
2018-12-24T02:17:39.906Z,0
2018-12-24T02:18:39.897Z,0
2018-12-24T02:19:39.636Z,0
2018-12-24T02:20:39.865Z,0
2018-12-24T02:21:39.850Z,0
2018-12-24T02:22:39.839Z,0
2018-12-24T02:23:39.821Z,0
2018-12-24T02:24:39.808Z,0
2018-12-24T02:25:39.800Z,0
2018-12-24T02:26:39.804Z,0
2018-12-24T02:27:39.770Z,0
2018-12-24T02:28:39.757Z,0
2018-12-24T02:29:39.742Z,0
2018-12-24T02:30:39.866Z,0
2018-12-24T02:31:39.729Z,0
2018-12-24T02:32:39.715Z,0
2018-12-24T02:33:39.720Z,0
2018-12-24T02:34:39.442Z,0
2018-12-24T02:35:39.672Z,0
2018-12-24T02:36:39.660Z,0
2018-12-24T02:37:39.635Z,0
2018-12-24T02:38:39.636Z,0
2018-12-24T02:39:39.603Z,0
2018-12-24T02:40:39.596Z,0
2018-12-24T02:41:39.586Z,0
2018-12-24T02:42:39.564Z,0
2018-12-24T02:43:39.548Z,0
2018-12-24T02:44:39.548Z,0
2018-12-24T02:45:39.520Z,0
2018-12-24T02:46:39.504Z,0
2018-12-24T02:47:39.500Z,0
2018-12-24T02:48:39.478Z,0
2018-12-24T02:49:39.464Z,0
2018-12-24T02:50:39.460Z,0
2018-12-24T02:51:39.471Z,0
2018-12-24T02:52:39.439Z,0
2018-12-24T02:53:39.421Z,0
2018-12-24T02:54:39.162Z,0
2018-12-24T02:55:39.405Z,0
2018-12-24T02:56:39.467Z,0
2018-12-24T02:57:39.379Z,0
2018-12-24T02:58:39.351Z,0
2018-12-24T02:59:39.329Z,0
2018-12-24T03:00:39.316Z,0
2018-12-24T03:01:39.289Z,0
2018-12-24T03:02:39.290Z,0
2018-12-24T03:03:39.259Z,0
2018-12-24T03:04:39.245Z,0
2018-12-24T03:05:39.293Z,0
2018-12-24T03:06:39.229Z,0
2018-12-24T03:07:39.216Z,0
2018-12-24T03:08:39.192Z,0
2018-12-24T03:09:39.188Z,0
2018-12-24T03:10:38.937Z,0
2018-12-24T03:11:39.154Z,0
2018-12-24T03:12:39.127Z,0
2018-12-24T03:13:39.124Z,0
2018-12-24T03:14:38.881Z,0
2018-12-24T03:15:39.311Z,0
2018-12-24T03:16:38.835Z,0
2018-12-24T03:17:39.066Z,0
2018-12-24T03:18:39.063Z,0
2018-12-24T03:19:39.107Z,0
2018-12-24T03:20:39.019Z,0
2018-12-24T03:21:39.063Z,0
2018-12-24T03:22:38.984Z,0
2018-12-24T03:23:38.971Z,0
2018-12-24T03:24:38.965Z,0
2018-12-24T03:25:39.010Z,0
2018-12-24T03:26:38.924Z,0
2018-12-24T03:27:38.931Z,0
2018-12-24T03:28:38.905Z,0
2018-12-24T03:29:39.020Z,0
2018-12-24T03:30:39.024Z,0
2018-12-24T03:31:38.443Z,0
2018-12-24T03:32:38.910Z,0
2018-12-24T03:33:38.837Z,0
2018-12-24T03:34:38.837Z,0
2018-12-24T03:35:38.809Z,0
2018-12-24T03:36:38.780Z,0
2018-12-24T03:37:38.771Z,0
2018-12-24T03:38:38.752Z,0
2018-12-24T03:39:38.738Z,0
2018-12-24T03:40:38.747Z,0
2018-12-24T03:41:38.723Z,0
2018-12-24T03:42:38.710Z,0
2018-12-24T03:43:38.681Z,0
2018-12-24T03:44:38.457Z,0
2018-12-24T03:45:38.659Z,0
2018-12-24T03:46:38.640Z,0
2018-12-24T03:47:38.628Z,0
2018-12-24T03:48:38.604Z,0
2018-12-24T03:49:38.590Z,0
2018-12-24T03:50:38.585Z,0
2018-12-24T03:51:38.564Z,0
2018-12-24T03:52:38.551Z,0
2018-12-24T03:53:38.542Z,0
2018-12-24T03:54:38.523Z,0
2018-12-24T03:55:38.523Z,0
2018-12-24T03:56:38.536Z,0
2018-12-24T03:57:38.485Z,0
2018-12-24T03:58:38.471Z,0
2018-12-24T03:59:38.450Z,0
2018-12-24T04:00:38.439Z,0
2018-12-24T04:01:38.414Z,0
2018-12-24T04:02:38.420Z,0
2018-12-24T04:03:38.389Z,0
2018-12-24T04:04:38.380Z,0
2018-12-24T04:05:38.364Z,0
2018-12-24T04:06:38.345Z,0
2018-12-24T04:07:38.337Z,0
2018-12-24T04:08:38.348Z,0
2018-12-24T04:09:38.301Z,0
2018-12-24T04:10:38.284Z,0
2018-12-24T04:11:38.357Z,0
2018-12-24T04:12:38.265Z,0
2018-12-24T04:13:38.250Z,0
2018-12-24T04:14:38.230Z,0
2018-12-24T04:15:38.220Z,0
2018-12-24T04:16:38.199Z,0
2018-12-24T04:17:38.197Z,0
2018-12-24T04:18:37.925Z,0
2018-12-24T04:19:37.923Z,0
2018-12-24T04:20:38.143Z,0
2018-12-24T04:21:38.240Z,0
2018-12-24T04:22:38.122Z,0
2018-12-24T04:23:38.094Z,0
2018-12-24T04:24:38.087Z,0
2018-12-24T04:25:38.067Z,0
2018-12-24T04:26:38.064Z,0
2018-12-24T04:27:46.487Z,0
2018-12-24T04:28:38.022Z,0
2018-12-24T04:29:38.009Z,0
2018-12-24T04:30:38.053Z,0
2018-12-24T04:31:37.986Z,0
2018-12-24T04:32:37.966Z,0
2018-12-24T04:33:37.953Z,0
2018-12-24T04:34:37.946Z,0
2018-12-24T04:35:38.281Z,0
2018-12-24T04:36:37.913Z,0
2018-12-24T04:37:37.891Z,0
2018-12-24T04:38:37.876Z,0
2018-12-24T04:39:37.871Z,0
2018-12-24T04:40:37.849Z,0
2018-12-24T04:41:37.834Z,0
2018-12-24T04:42:37.834Z,0
2018-12-24T04:43:41.638Z,0
2018-12-24T04:44:37.791Z,0
2018-12-24T04:45:37.771Z,0
2018-12-24T04:46:37.532Z,0
2018-12-24T04:47:37.746Z,0
2018-12-24T04:48:37.723Z,0
2018-12-24T04:49:37.712Z,0
2018-12-24T04:50:37.695Z,0
2018-12-24T04:51:37.775Z,0
2018-12-24T04:52:37.669Z,0
2018-12-24T04:53:37.656Z,0
2018-12-24T04:54:37.642Z,0
2018-12-24T04:55:37.643Z,0
2018-12-24T04:56:37.609Z,0
2018-12-24T04:57:37.606Z,0
2018-12-24T04:58:37.580Z,0
2018-12-24T04:59:37.560Z,0
2018-12-24T05:00:37.562Z,0
2018-12-24T05:01:37.535Z,0
2018-12-24T05:02:37.274Z,0
2018-12-24T05:03:37.503Z,0
2018-12-24T05:04:37.490Z,0
2018-12-24T05:05:37.483Z,0
2018-12-24T05:06:37.457Z,0
2018-12-24T05:07:37.442Z,0
2018-12-24T05:08:37.424Z,0
2018-12-24T05:09:37.411Z,0
2018-12-24T05:10:37.391Z,0
2018-12-24T05:11:37.387Z,0
2018-12-24T05:12:37.359Z,0
2018-12-24T05:13:45.518Z,0
2018-12-24T05:14:37.086Z,0
2018-12-24T05:15:37.313Z,0
2018-12-24T05:16:37.296Z,0
2018-12-24T05:17:37.280Z,0
2018-12-24T05:18:37.329Z,0
2018-12-24T05:19:37.252Z,0
2018-12-24T05:20:37.242Z,0
2018-12-24T05:21:37.224Z,0
2018-12-24T05:22:37.252Z,0
2018-12-24T05:23:36.956Z,0
2018-12-24T05:24:37.183Z,0
2018-12-24T05:25:37.164Z,0
2018-12-24T05:26:37.149Z,0
2018-12-24T05:27:36.896Z,0
2018-12-24T05:28:37.119Z,0
2018-12-24T05:29:37.106Z,0
2018-12-24T05:30:37.088Z,0
2018-12-24T05:31:37.122Z,0
2018-12-24T05:32:37.059Z,0
2018-12-24T05:33:37.054Z,0
2018-12-24T05:34:37.041Z,0
2018-12-24T05:35:37.034Z,0
2018-12-24T05:36:37.001Z,0
2018-12-24T05:37:37.085Z,0
2018-12-24T05:38:36.958Z,0
2018-12-24T05:39:36.945Z,0
2018-12-24T05:40:37.045Z,0
2018-12-24T05:41:36.428Z,0
2018-12-24T05:42:36.904Z,0
2018-12-24T05:43:36.883Z,0
2018-12-24T05:44:36.874Z,0
2018-12-24T05:45:36.856Z,0
2018-12-24T05:46:36.839Z,0
2018-12-24T05:47:36.820Z,0
2018-12-24T05:48:36.817Z,0
2018-12-24T05:49:36.789Z,0
2018-12-24T05:50:36.778Z,0
2018-12-24T05:51:36.767Z,0
2018-12-24T05:52:36.745Z,0
2018-12-24T05:53:36.738Z,0
2018-12-24T05:54:36.721Z,0
2018-12-24T05:55:36.704Z,0
2018-12-24T05:56:36.691Z,0
2018-12-24T05:57:36.670Z,0
2018-12-24T05:58:36.655Z,0
2018-12-24T05:59:36.636Z,0
2018-12-24T06:00:36.622Z,0
2018-12-24T06:01:36.608Z,0
2018-12-24T06:02:36.597Z,0
2018-12-24T06:03:36.594Z,0
2018-12-24T06:04:36.569Z,0
2018-12-24T06:05:36.567Z,0
2018-12-24T06:06:36.534Z,0
2018-12-24T06:07:36.528Z,0
2018-12-24T06:08:36.506Z,0
2018-12-24T06:09:36.543Z,0
2018-12-24T06:10:36.483Z,0
2018-12-24T06:11:36.463Z,0
2018-12-24T06:12:36.447Z,0
2018-12-24T06:13:36.424Z,0
2018-12-24T06:14:36.415Z,0
2018-12-24T06:15:36.392Z,0
2018-12-24T06:16:36.414Z,0
2018-12-24T06:17:36.365Z,0
2018-12-24T06:18:36.353Z,0
2018-12-24T06:19:36.345Z,0
2018-12-24T06:20:44.692Z,0
2018-12-24T06:21:36.319Z,0
2018-12-24T06:22:36.281Z,0
2018-12-24T06:23:36.268Z,0
2018-12-24T06:24:36.264Z,0
2018-12-24T06:25:36.278Z,0
2018-12-24T06:26:36.233Z,0
2018-12-24T06:27:36.207Z,0
2018-12-24T06:28:36.196Z,0
2018-12-24T06:29:36.185Z,0
2018-12-24T06:30:36.166Z,0
2018-12-24T06:31:38.190Z,0
2018-12-24T06:32:36.127Z,0
2018-12-24T06:33:36.115Z,0
2018-12-24T06:34:36.102Z,0
2018-12-24T06:35:36.082Z,0
2018-12-24T06:36:36.071Z,0
2018-12-24T06:37:36.050Z,0
2018-12-24T06:38:36.046Z,0
2018-12-24T06:39:36.021Z,0
2018-12-24T06:40:36.009Z,0
2018-12-24T06:41:35.987Z,0
2018-12-24T06:42:35.978Z,0
2018-12-24T06:43:35.974Z,0
2018-12-24T06:44:35.941Z,0
2018-12-24T06:45:35.942Z,0
2018-12-24T06:46:35.910Z,0
2018-12-24T06:47:35.898Z,0
2018-12-24T06:48:35.881Z,0
2018-12-24T06:49:35.865Z,0
2018-12-24T06:50:35.847Z,0
2018-12-24T06:51:35.838Z,0
2018-12-24T06:52:35.825Z,0
2018-12-24T06:53:35.802Z,0
2018-12-24T06:54:35.786Z,0
2018-12-24T06:55:35.777Z,0
2018-12-24T06:56:35.749Z,0
2018-12-24T06:57:35.737Z,0
2018-12-24T06:58:35.730Z,0
2018-12-24T06:59:35.713Z,0
2018-12-24T07:00:35.797Z,0
2018-12-24T07:01:35.674Z,0
2018-12-24T07:02:35.662Z,0
2018-12-24T07:03:35.643Z,0
2018-12-24T07:04:35.631Z,0
2018-12-24T07:05:35.613Z,0
2018-12-24T07:06:35.672Z,0
2018-12-24T07:07:35.593Z,0
2018-12-24T07:08:35.565Z,5
2018-12-24T07:09:35.547Z,5
2018-12-24T07:10:35.537Z,5
2018-12-24T07:11:35.522Z,5
2018-12-24T07:12:35.895Z,5
2018-12-24T07:13:35.500Z,5
2018-12-24T07:14:35.468Z,5
2018-12-24T07:15:35.455Z,5
2018-12-24T07:16:35.452Z,10
2018-12-24T07:17:35.430Z,10
2018-12-24T07:18:35.405Z,10
2018-12-24T07:19:35.393Z,10
2018-12-24T07:20:35.381Z,10
2018-12-24T07:21:35.360Z,10
2018-12-24T07:22:35.353Z,15
2018-12-24T07:23:35.330Z,15
2018-12-24T07:24:35.309Z,15
2018-12-24T07:25:35.306Z,15
2018-12-24T07:26:35.286Z,15
2018-12-24T07:27:35.271Z,15
2018-12-24T07:28:35.251Z,15
2018-12-24T07:29:35.234Z,15
2018-12-24T07:30:35.295Z,15
2018-12-24T07:31:35.215Z,20
2018-12-24T07:32:35.194Z,20
2018-12-24T07:33:35.193Z,20
2018-12-24T07:34:42.026Z,25
2018-12-24T07:35:35.138Z,25
2018-12-24T07:36:35.126Z,25
2018-12-24T07:37:35.105Z,25
2018-12-24T07:38:35.104Z,25
2018-12-24T07:39:35.074Z,25
2018-12-24T07:40:35.062Z,30
2018-12-24T07:41:34.802Z,30
2018-12-24T07:42:35.043Z,25
2018-12-24T07:43:35.017Z,25
2018-12-24T07:44:35.003Z,30
2018-12-24T07:45:34.987Z,35
2018-12-24T07:46:34.960Z,40
2018-12-24T07:47:34.949Z,45
2018-12-24T07:48:34.940Z,45
2018-12-24T07:49:34.917Z,45
2018-12-24T07:50:34.900Z,45
2018-12-24T07:51:34.882Z,50
2018-12-24T07:52:34.873Z,50
2018-12-24T07:53:35.299Z,50
2018-12-24T07:54:34.841Z,55
2018-12-24T07:55:34.826Z,50
2018-12-24T07:56:34.814Z,50
2018-12-24T07:57:34.797Z,50
2018-12-24T07:58:34.785Z,50
2018-12-24T07:59:34.765Z,55
2018-12-24T08:00:34.740Z,55
2018-12-24T08:01:34.729Z,55
2018-12-24T08:02:34.782Z,55
2018-12-24T08:03:34.695Z,60
2018-12-24T08:04:35.990Z,60
2018-12-24T08:05:34.663Z,50
2018-12-24T08:06:34.698Z,50
2018-12-24T08:07:34.636Z,50
2018-12-24T08:08:34.616Z,50
2018-12-24T08:09:34.604Z,50
2018-12-24T08:10:34.339Z,55
2018-12-24T08:11:34.571Z,60
2018-12-24T08:12:34.559Z,65
2018-12-24T08:13:34.535Z,65
2018-12-24T08:14:42.321Z,65
2018-12-24T08:15:34.560Z,65
2018-12-24T08:16:34.494Z,60
2018-12-24T08:17:34.472Z,55
2018-12-24T08:18:34.463Z,50
2018-12-24T08:19:34.578Z,55
2018-12-24T08:20:34.423Z,60
2018-12-24T08:21:34.430Z,65
2018-12-24T08:22:34.396Z,55
2018-12-24T08:23:34.376Z,50
2018-12-24T08:24:34.374Z,60
2018-12-24T08:25:34.352Z,65
2018-12-24T08:26:34.334Z,65
2018-12-24T08:27:34.320Z,60
2018-12-24T08:28:34.306Z,50
2018-12-24T08:29:34.295Z,50
2018-12-24T08:30:34.269Z,50
2018-12-24T08:31:34.255Z,55
2018-12-24T08:32:34.237Z,65
2018-12-24T08:33:34.377Z,65
2018-12-24T08:34:34.218Z,70
2018-12-24T08:35:34.189Z,70
2018-12-24T08:36:34.183Z,75
2018-12-24T08:37:34.157Z,85
2018-12-24T08:38:33.906Z,90
2018-12-24T08:39:34.386Z,85
2018-12-24T08:40:34.120Z,80
2018-12-24T08:41:34.112Z,75
2018-12-24T08:42:34.188Z,75
2018-12-24T08:43:34.065Z,80
2018-12-24T08:44:41.529Z,80
2018-12-24T08:45:33.789Z,80
2018-12-24T08:46:34.018Z,80
2018-12-24T08:47:34.001Z,90
2018-12-24T08:48:33.994Z,85
2018-12-24T08:49:33.965Z,80
2018-12-24T08:50:33.967Z,80
2018-12-24T08:51:33.949Z,80
2018-12-24T08:52:33.925Z,85
2018-12-24T08:53:33.904Z,90
2018-12-24T08:54:33.901Z,100
2018-12-24T08:55:33.884Z,110
2018-12-24T08:56:34.047Z,115
2018-12-24T08:57:33.885Z,110
2018-12-24T08:58:33.831Z,115
2018-12-24T08:59:33.829Z,115
2018-12-24T09:00:33.917Z,125
2018-12-24T09:01:33.897Z,110
2018-12-24T09:02:33.771Z,100
2018-12-24T09:03:33.753Z,95
2018-12-24T09:04:33.741Z,95
2018-12-24T09:05:33.720Z,90
2018-12-24T09:06:33.708Z,85
2018-12-24T09:07:33.693Z,85
2018-12-24T09:08:33.677Z,85
2018-12-24T09:09:33.664Z,80
2018-12-24T09:10:33.646Z,75
2018-12-24T09:11:33.631Z,75
2018-12-24T09:12:33.701Z,80
2018-12-24T09:13:33.597Z,80
2018-12-24T09:14:33.596Z,80
2018-12-24T09:15:33.564Z,70
2018-12-24T09:16:33.563Z,75
2018-12-24T09:17:35.078Z,80
2018-12-24T09:18:33.526Z,75
2018-12-24T09:19:33.266Z,65
2018-12-24T09:20:33.491Z,60
2018-12-24T09:21:33.592Z,60
2018-12-24T09:22:33.462Z,65
2018-12-24T09:23:33.451Z,75
2018-12-24T09:24:33.430Z,80
2018-12-24T09:25:33.411Z,85
2018-12-24T09:26:33.396Z,90
2018-12-24T09:27:33.387Z,95
2018-12-24T09:28:33.367Z,75
2018-12-24T09:29:33.109Z,70
2018-12-24T09:30:33.348Z,80
2018-12-24T09:31:33.433Z,80
2018-12-24T09:32:33.307Z,75
2018-12-24T09:33:33.293Z,70
2018-12-24T09:34:33.287Z,75
2018-12-24T09:35:33.277Z,80
2018-12-24T09:36:33.251Z,75
2018-12-24T09:37:33.236Z,70
2018-12-24T09:38:33.224Z,75
2018-12-24T09:39:32.965Z,75
2018-12-24T09:40:33.202Z,85
2018-12-24T09:41:33.168Z,95
2018-12-24T09:42:33.163Z,85
2018-12-24T09:43:33.135Z,85
2018-12-24T09:44:33.131Z,85
2018-12-24T09:45:33.114Z,80
2018-12-24T09:46:33.099Z,85
2018-12-24T09:47:33.083Z,80
2018-12-24T09:48:33.063Z,80
2018-12-24T09:49:33.058Z,70
2018-12-24T09:50:33.037Z,65
2018-12-24T09:51:33.017Z,65
2018-12-24T09:52:33.078Z,70
2018-12-24T09:53:32.987Z,65
2018-12-24T09:54:32.983Z,60
2018-12-24T09:55:32.959Z,60
2018-12-24T09:56:32.942Z,55
2018-12-24T09:57:32.930Z,60
2018-12-24T09:58:32.920Z,60
2018-12-24T09:59:32.899Z,65
2018-12-24T10:00:32.882Z,60
2018-12-24T10:01:32.865Z,55
2018-12-24T10:02:32.847Z,55
2018-12-24T10:03:32.950Z,60
2018-12-24T10:04:32.826Z,65
2018-12-24T10:05:32.800Z,65
2018-12-24T10:06:32.789Z,65
2018-12-24T10:07:32.770Z,65
2018-12-24T10:08:32.762Z,65
2018-12-24T10:09:32.747Z,65
2018-12-24T10:10:32.725Z,65
2018-12-24T10:11:32.709Z,65
2018-12-24T10:12:32.694Z,60
2018-12-24T10:13:32.680Z,60
2018-12-24T10:14:32.676Z,60
2018-12-24T10:15:32.646Z,55
2018-12-24T10:16:32.631Z,60
2018-12-24T10:17:32.626Z,65
2018-12-24T10:18:32.665Z,65
2018-12-24T10:19:32.590Z,60
2018-12-24T10:20:32.571Z,60
2018-12-24T10:21:32.561Z,60
2018-12-24T10:22:32.540Z,60
2018-12-24T10:23:32.523Z,60
2018-12-24T10:24:32.511Z,60
2018-12-24T10:25:32.498Z,60
2018-12-24T10:26:32.483Z,55
2018-12-24T10:27:32.470Z,60
2018-12-24T10:28:32.452Z,60
2018-12-24T10:29:32.436Z,60
2018-12-24T10:30:32.420Z,60
2018-12-24T10:31:32.408Z,55
2018-12-24T10:32:32.390Z,55
2018-12-24T10:33:32.369Z,55
2018-12-24T10:34:32.368Z,60
2018-12-24T10:35:32.339Z,60
2018-12-24T10:36:32.326Z,60
2018-12-24T10:37:32.314Z,60
2018-12-24T10:38:32.297Z,60
2018-12-24T10:39:32.288Z,60
2018-12-24T10:40:32.263Z,60
2018-12-24T10:41:34.448Z,60
2018-12-24T10:42:32.232Z,60
2018-12-24T10:43:32.218Z,60
2018-12-24T10:44:32.462Z,60
2018-12-24T10:45:32.195Z,60
2018-12-24T10:46:32.181Z,65
2018-12-24T10:47:32.153Z,60
2018-12-24T10:48:32.144Z,60
2018-12-24T10:49:32.124Z,65
2018-12-24T10:50:32.103Z,70
2018-12-24T10:51:32.096Z,70
2018-12-24T10:52:32.072Z,75
2018-12-24T10:53:32.075Z,75
2018-12-24T10:54:32.061Z,75
2018-12-24T10:55:32.028Z,85
2018-12-24T10:56:32.016Z,90
2018-12-24T10:57:32.002Z,90
2018-12-24T10:58:31.990Z,80
2018-12-24T10:59:31.982Z,70
2018-12-24T11:00:31.958Z,65
2018-12-24T11:01:31.937Z,65
2018-12-24T11:02:31.923Z,65
2018-12-24T11:03:31.909Z,65
2018-12-24T11:04:32.017Z,65
2018-12-24T11:05:31.876Z,65
2018-12-24T11:06:31.993Z,65
2018-12-24T11:07:31.600Z,60
2018-12-24T11:08:31.829Z,60
2018-12-24T11:09:31.817Z,55
2018-12-24T11:10:31.802Z,55
2018-12-24T11:11:31.868Z,50
2018-12-24T11:12:31.774Z,50
2018-12-24T11:13:31.765Z,50
2018-12-24T11:14:31.744Z,50
2018-12-24T11:15:34.955Z,55
2018-12-24T11:16:31.711Z,50
2018-12-24T11:17:31.704Z,50
2018-12-24T11:18:31.673Z,55
2018-12-24T11:19:31.663Z,60
2018-12-24T11:20:31.651Z,60
2018-12-24T11:21:31.633Z,60
2018-12-24T11:22:31.611Z,60
2018-12-24T11:23:31.600Z,65
2018-12-24T11:24:31.584Z,65
2018-12-24T11:25:31.621Z,65
2018-12-24T11:26:31.553Z,65
2018-12-24T11:27:31.640Z,70
2018-12-24T11:28:31.547Z,65
2018-12-24T11:29:31.507Z,65
2018-12-24T11:30:31.500Z,55
2018-12-24T11:31:31.486Z,50
2018-12-24T11:32:31.471Z,45
2018-12-24T11:33:31.455Z,45
2018-12-24T11:34:31.437Z,50
2018-12-24T11:35:31.421Z,55
2018-12-24T11:36:31.408Z,50
2018-12-24T11:37:31.504Z,50
2018-12-24T11:38:31.373Z,45
2018-12-24T11:39:31.359Z,50
2018-12-24T11:40:31.344Z,50
2018-12-24T11:41:31.338Z,55
2018-12-24T11:42:33.230Z,55
2018-12-24T11:43:31.298Z,60
2018-12-24T11:44:31.044Z,60
2018-12-24T11:45:38.597Z,55
2018-12-24T11:46:31.504Z,55
2018-12-24T11:47:31.241Z,55
2018-12-24T11:48:31.250Z,55
2018-12-24T11:49:32.669Z,55
2018-12-24T11:50:31.258Z,60
2018-12-24T11:51:31.188Z,65
2018-12-24T11:52:31.167Z,65
2018-12-24T11:53:31.151Z,60
2018-12-24T11:54:31.137Z,55
2018-12-24T11:55:31.117Z,50
2018-12-24T11:56:31.098Z,50
2018-12-24T11:57:31.120Z,45
2018-12-24T11:58:31.079Z,45
2018-12-24T11:59:31.104Z,45
2018-12-24T12:00:31.042Z,45
2018-12-24T12:01:31.025Z,50
2018-12-24T12:02:30.779Z,55
2018-12-24T12:03:30.997Z,55
2018-12-24T12:04:30.979Z,55
2018-12-24T12:05:30.967Z,55
2018-12-24T12:06:30.953Z,60
2018-12-24T12:07:30.935Z,60
2018-12-24T12:08:30.917Z,60
2018-12-24T12:09:30.908Z,60
2018-12-24T12:10:30.888Z,55
2018-12-24T12:11:30.872Z,55
2018-12-24T12:12:30.854Z,55
2018-12-24T12:13:30.842Z,45
2018-12-24T12:14:30.829Z,45
2018-12-24T12:15:30.813Z,50
2018-12-24T12:16:31.817Z,60
2018-12-24T12:17:31.042Z,60
2018-12-24T12:18:30.767Z,60
2018-12-24T12:19:30.748Z,60
2018-12-24T12:20:32.365Z,60
2018-12-24T12:21:30.724Z,60
2018-12-24T12:22:31.058Z,60
2018-12-24T12:23:30.692Z,65
2018-12-24T12:24:30.678Z,65
2018-12-24T12:25:30.656Z,65
2018-12-24T12:26:32.763Z,65
2018-12-24T12:27:30.692Z,65
2018-12-24T12:28:30.613Z,65
2018-12-24T12:29:30.657Z,70
2018-12-24T12:30:30.685Z,75
2018-12-24T12:31:30.569Z,75
2018-12-24T12:32:30.655Z,65
2018-12-24T12:33:30.540Z,60
2018-12-24T12:34:30.523Z,60
2018-12-24T12:35:30.505Z,55
2018-12-24T12:36:30.494Z,50
2018-12-24T12:37:30.474Z,50
2018-12-24T12:38:39.096Z,55
2018-12-24T12:39:30.446Z,55
2018-12-24T12:40:30.428Z,50
2018-12-24T12:41:30.481Z,55
2018-12-24T12:42:30.435Z,55
2018-12-24T12:43:30.410Z,50
2018-12-24T12:44:30.379Z,50
2018-12-24T12:45:30.356Z,50
2018-12-24T12:46:30.340Z,45
2018-12-24T12:47:30.326Z,50
2018-12-24T12:48:30.890Z,55
2018-12-24T12:49:30.541Z,50
2018-12-24T12:50:30.033Z,40
2018-12-24T12:51:30.265Z,40
2018-12-24T12:52:30.250Z,45
2018-12-24T12:53:30.239Z,50
2018-12-24T12:54:30.221Z,45
2018-12-24T12:55:30.260Z,50
2018-12-24T12:56:30.186Z,60
2018-12-24T12:57:30.175Z,55
2018-12-24T12:58:30.159Z,55
2018-12-24T12:59:30.146Z,55
2018-12-24T13:00:30.123Z,55
2018-12-24T13:01:30.108Z,55
2018-12-24T13:02:30.101Z,60
2018-12-24T13:03:30.080Z,60
2018-12-24T13:04:30.070Z,55
2018-12-24T13:05:30.058Z,60
2018-12-24T13:06:30.040Z,65
2018-12-24T13:07:30.025Z,70
2018-12-24T13:08:30.005Z,65
2018-12-24T13:09:29.995Z,60
2018-12-24T13:10:30.054Z,60
2018-12-24T13:11:29.958Z,60
2018-12-24T13:12:29.958Z,55
2018-12-24T13:13:36.655Z,55
2018-12-24T13:14:29.918Z,55
2018-12-24T13:15:29.898Z,55
2018-12-24T13:16:29.887Z,50
2018-12-24T13:17:29.995Z,45
2018-12-24T13:18:29.854Z,45
2018-12-24T13:19:29.841Z,40
2018-12-24T13:20:34.563Z,35
2018-12-24T13:21:29.808Z,35
2018-12-24T13:22:29.797Z,35
2018-12-24T13:23:29.778Z,35
2018-12-24T13:24:29.765Z,30
2018-12-24T13:25:29.752Z,30
2018-12-24T13:26:29.737Z,35
2018-12-24T13:27:29.723Z,35
2018-12-24T13:28:29.703Z,35
2018-12-24T13:29:29.695Z,35
2018-12-24T13:30:29.677Z,35
2018-12-24T13:31:29.660Z,35
2018-12-24T13:32:31.290Z,35
2018-12-24T13:33:29.737Z,35
2018-12-24T13:34:29.619Z,30
2018-12-24T13:35:29.605Z,30
2018-12-24T13:36:29.589Z,25
2018-12-24T13:37:29.573Z,25
2018-12-24T13:38:29.559Z,25
2018-12-24T13:39:29.541Z,25
2018-12-24T13:40:29.525Z,20
2018-12-24T13:41:29.512Z,20
2018-12-24T13:42:29.253Z,20
2018-12-24T13:43:29.482Z,20
2018-12-24T13:44:29.475Z,25
2018-12-24T13:45:29.216Z,25
2018-12-24T13:46:29.437Z,20
2018-12-24T13:47:29.423Z,20
2018-12-24T13:48:29.408Z,20
2018-12-24T13:49:29.405Z,20
2018-12-24T13:50:29.377Z,20
2018-12-24T13:51:29.615Z,20
2018-12-24T13:52:29.342Z,20
2018-12-24T13:53:29.329Z,20
2018-12-24T13:54:29.312Z,20
2018-12-24T13:55:29.302Z,15
2018-12-24T13:56:29.286Z,15
2018-12-24T13:57:29.274Z,15
2018-12-24T13:58:29.256Z,15
2018-12-24T13:59:32.958Z,15
2018-12-24T14:00:29.223Z,15
2018-12-24T14:01:29.205Z,15
2018-12-24T14:02:29.198Z,15
2018-12-24T14:03:29.219Z,20
2018-12-24T14:04:29.162Z,15
2018-12-24T14:05:29.162Z,15
2018-12-24T14:06:29.127Z,15
2018-12-24T14:07:29.119Z,15
2018-12-24T14:08:29.103Z,15
2018-12-24T14:09:29.083Z,15
2018-12-24T14:10:29.071Z,10
2018-12-24T14:11:29.054Z,10
2018-12-24T14:12:29.035Z,10
2018-12-24T14:13:29.023Z,10
2018-12-24T14:14:28.764Z,10
2018-12-24T14:15:28.991Z,10
2018-12-24T14:16:28.983Z,10
2018-12-24T14:17:28.960Z,10
2018-12-24T14:18:28.943Z,10
2018-12-24T14:19:28.938Z,10
2018-12-24T14:20:28.915Z,10
2018-12-24T14:21:28.919Z,10
2018-12-24T14:22:29.132Z,10
2018-12-24T14:23:28.875Z,5
2018-12-24T14:24:28.861Z,5
2018-12-24T14:25:28.854Z,5
2018-12-24T14:26:28.818Z,5
2018-12-24T14:27:28.808Z,5
2018-12-24T14:28:28.789Z,5
2018-12-24T14:29:28.773Z,5
2018-12-24T14:30:28.765Z,5
2018-12-24T14:31:28.751Z,5